Time;durP1;ratioP1;P1;durP2;ratioP2;P2;SDS_P1;SDS_P2;PMS_P1;PMS_P2;Temp;Humidity;BMP_temperature;BMP_pressure;BME280_temperature;BME280_humidity;BME280_pressure;Samples;Min_cycle;Max_cycle;Signal;HPM_P1;HPM_P2
2023/06/05 00:00:30;;;;;;;7.45;3.70;;;;;;;-144.73;99.86;54206.56;5075009;28;20027;-70
2023/06/05 00:02:56;;;;;;;8.60;3.80;;;;;;;-144.73;99.95;54181.94;5054998;28;20028;-70
2023/06/05 00:05:25;;;;;;;11.32;4.47;;;;;;;-144.73;100.00;54177.81;5055941;28;20048;-71
2023/06/05 00:07:51;;;;;;;7.85;3.80;;;;;;;-144.73;100.00;54169.63;5074675;28;20098;-70
2023/06/05 00:10:17;;;;;;;9.10;4.10;;;;;;;-144.73;100.00;54165.50;5055127;28;20040;-71
2023/06/05 00:12:42;;;;;;;9.57;3.78;;;;;;;-144.73;100.00;54198.34;5053646;28;20033;-70
2023/06/05 00:15:08;;;;;;;13.15;4.90;;;;;;;-144.73;100.00;54202.44;5056976;28;20028;-71
2023/06/05 00:17:34;;;;;;;9.75;4.25;;;;;;;-144.73;100.00;54194.25;5053667;28;20047;-71
2023/06/05 00:19:59;;;;;;;15.85;4.10;;;;;;;-144.73;100.00;54177.81;5055584;28;20036;-70
2023/06/05 00:22:28;;;;;;;14.40;4.57;;;;;;;-144.73;100.00;54202.44;5057001;28;20036;-70
2023/06/05 00:24:54;;;;;;;10.98;4.85;;;;;;;-144.73;100.00;54206.56;5057526;28;20020;-71
2023/06/05 00:27:19;;;;;;;16.02;4.80;;;;;;;-144.73;100.00;54194.25;5074998;28;20086;-70
2023/06/05 00:29:45;;;;;;;18.80;5.22;;;;;;;-144.73;100.00;54202.44;5057336;28;20450;-70
2023/06/05 00:32:10;;;;;;;9.75;4.75;;;;;;;-144.73;100.00;54194.25;5056298;28;20043;-70
2023/06/05 00:34:36;;;;;;;15.07;4.97;;;;;;;-144.73;100.00;54165.50;5070984;28;20020;-70
2023/06/05 00:37:01;;;;;;;13.73;4.80;;;;;;;-144.73;100.00;54173.72;5053376;28;20056;-70
2023/06/05 00:39:27;;;;;;;9.80;3.90;;;;;;;-144.73;100.00;54173.72;5053973;28;20067;-70
2023/06/05 00:41:52;;;;;;;20.55;5.03;;;;;;;-144.73;100.00;54186.03;5070873;28;20124;-70
2023/06/05 00:44:18;;;;;;;14.00;4.68;;;;;;;-144.73;100.00;54145.00;5053520;28;20024;-70
2023/06/05 00:46:44;;;;;;;15.20;4.85;;;;;;;-144.73;100.00;54243.50;5049713;28;20040;-70
2023/06/05 00:49:11;;;;;;;12.40;5.10;;;;;;;-144.73;100.00;54186.03;5053317;28;20032;-70
2023/06/05 00:51:38;;;;;;;12.45;5.07;;;;;;;-144.73;100.00;54169.63;5050194;28;20033;-70
2023/06/05 00:54:05;;;;;;;9.82;4.82;;;;;;;-144.73;100.00;54222.97;5067921;28;20024;-70
2023/06/05 00:56:33;;;;;;;14.60;5.38;;;;;;;-144.73;100.00;54173.72;5052752;28;20032;-70
2023/06/05 00:58:58;;;;;;;13.93;5.18;;;;;;;-144.73;100.00;54206.56;5071909;28;20103;-70
2023/06/05 01:01:24;;;;;;;17.45;6.03;;;;;;;-144.73;100.00;54161.41;5053146;28;20170;-72
2023/06/05 01:03:50;;;;;;;14.10;4.65;;;;;;;-144.73;100.00;54194.25;5053626;28;20174;-72
2023/06/05 01:06:17;;;;;;;19.67;5.35;;;;;;;-144.73;100.00;54202.44;5053540;28;20020;-70
2023/06/05 01:08:46;;;;;;;16.40;5.97;;;;;;;-144.73;100.00;54198.34;5052934;28;20124;-70
2023/06/05 01:11:26;;;;;;;10.93;4.60;;;;;;;-144.73;100.00;54212.72;5070769;28;20021;-70
2023/06/05 01:14:00;;;;;;;11.40;5.60;;;;;;;-144.73;100.00;54198.34;5053697;28;20098;-70
2023/06/05 01:16:30;;;;;;;15.13;4.65;;;;;;;-144.73;100.00;54210.66;5053073;28;20082;-70
2023/06/05 01:19:02;;;;;;;13.52;6.20;;;;;;;-144.73;100.00;54212.72;5072351;28;20439;-71
2023/06/05 01:21:31;;;;;;;13.73;5.10;;;;;;;-144.73;100.00;54206.56;5071092;28;20030;-70
2023/06/05 01:24:01;;;;;;;17.73;5.68;;;;;;;-144.73;100.00;54202.44;5050903;28;20545;-71
2023/06/05 01:26:53;;;;;;;13.70;5.70;;;;;;;-144.73;100.00;54227.09;5070440;28;20543;-70
2023/06/05 01:29:37;;;;;;;15.25;5.95;;;;;;;-144.73;100.00;54190.13;5068835;28;20105;-70
2023/06/05 01:32:12;;;;;;;18.08;5.65;;;;;;;-144.73;100.00;54173.72;5052252;28;20056;-70
2023/06/05 01:34:43;;;;;;;16.05;4.95;;;;;;;-144.73;100.00;54181.94;5070381;28;20033;-71
2023/06/05 01:37:12;;;;;;;15.75;5.90;;;;;;;-144.73;100.00;54198.34;5052376;28;20052;-70
2023/06/05 01:39:39;;;;;;;10.68;4.80;;;;;;;-144.73;100.00;54218.88;5048637;28;20024;-71
2023/06/05 01:42:05;;;;;;;14.18;5.55;;;;;;;-144.73;100.00;54181.94;5051986;28;20089;-70
2023/06/05 01:44:30;;;;;;;15.90;6.20;;;;;;;-144.73;100.00;54216.81;5052232;28;20100;-70
2023/06/05 01:46:56;;;;;;;13.60;6.07;;;;;;;-144.73;100.00;54190.13;5051877;28;20068;-70
2023/06/05 01:49:22;;;;;;;12.70;5.55;;;;;;;-144.73;100.00;54190.13;5070342;28;20028;-70
2023/06/05 01:51:48;;;;;;;13.23;5.60;;;;;;;-144.73;100.00;54214.78;5051988;28;20024;-71
2023/06/05 01:54:15;;;;;;;12.95;6.28;;;;;;;-144.73;100.00;54214.78;5070416;28;20112;-70
2023/06/05 01:56:43;;;;;;;11.25;5.50;;;;;;;-144.73;100.00;54206.56;5051779;28;20093;-71
2023/06/05 01:59:08;;;;;;;11.98;5.45;;;;;;;-144.73;100.00;54214.78;5051648;28;20032;-70
2023/06/05 02:01:34;;;;;;;24.60;6.60;;;;;;;-144.73;100.00;54225.03;5051669;28;20025;-70
2023/06/05 02:04:04;;;;;;;15.63;5.50;;;;;;;-144.73;100.00;54231.19;5046331;28;20020;-69
2023/06/05 02:06:35;;;;;;;10.52;5.05;;;;;;;-144.73;100.00;54194.25;5045243;28;20036;-70
2023/06/05 02:09:02;;;;;;;13.10;6.10;;;;;;;-144.73;100.00;54194.25;5069659;28;20035;-70
2023/06/05 02:11:27;;;;;;;13.88;6.20;;;;;;;-144.73;100.00;54206.56;5059453;28;20036;-70
2023/06/05 02:13:52;;;;;;;16.50;6.57;;;;;;;-144.73;100.00;54177.81;5051649;28;20017;-70
2023/06/05 02:16:18;;;;;;;17.48;5.72;;;;;;;-144.73;100.00;54235.28;5051705;28;20054;-70
2023/06/05 02:18:48;;;;;;;15.30;6.95;;;;;;;-144.73;100.00;54235.28;5051639;28;20122;-70
2023/06/05 02:21:15;;;;;;;16.40;6.07;;;;;;;-144.73;100.00;54173.72;5051942;28;20029;-71
2023/06/05 02:23:41;;;;;;;18.95;6.88;;;;;;;-144.73;100.00;54124.47;5047888;28;20053;-70
2023/06/05 02:26:07;;;;;;;16.92;6.38;;;;;;;-144.73;100.00;54190.13;5051141;28;20016;-71
2023/06/05 02:28:32;;;;;;;26.02;8.25;;;;;;;-144.73;100.00;54194.25;5048103;28;20036;-71
2023/06/05 02:30:59;;;;;;;17.50;7.00;;;;;;;-144.73;100.00;54227.09;5051911;28;20024;-71
2023/06/05 02:33:24;;;;;;;17.95;7.50;;;;;;;-144.73;100.00;54206.56;5050566;28;20028;-72
2023/06/05 02:35:51;;;;;;;21.63;7.38;;;;;;;-144.73;100.00;54218.88;5051413;28;20031;-72
2023/06/05 02:38:17;;;;;;;25.30;7.20;;;;;;;-144.73;100.00;54202.44;5050475;28;20040;-72
2023/06/05 02:40:42;;;;;;;16.13;7.72;;;;;;;-144.73;100.00;54231.19;5043215;28;20021;-72
2023/06/05 02:43:08;;;;;;;22.20;7.88;;;;;;;-144.73;100.00;54173.72;5046634;28;20033;-71
2023/06/05 02:45:34;;;;;;;22.42;7.07;;;;;;;-144.73;100.00;54206.56;5051416;28;20028;-71
2023/06/05 02:48:00;;;;;;;15.90;7.88;;;;;;;-144.73;100.00;54216.81;5048592;28;20036;-71
2023/06/05 02:50:25;;;;;;;18.88;8.38;;;;;;;-144.73;100.00;54222.97;5054317;28;20376;-71
2023/06/05 02:52:50;;;;;;;16.77;7.78;;;;;;;-144.73;100.00;54202.44;5049670;28;20025;-71
2023/06/05 02:55:17;;;;;;;16.92;6.82;;;;;;;-144.73;100.00;54218.88;5050850;28;20399;-72
2023/06/05 02:57:42;;;;;;;15.73;8.75;;;;;;;-144.73;100.00;54210.66;5068430;28;20036;-69
2023/06/05 03:00:18;;;;;;;27.92;8.25;;;;;;;-144.73;100.00;54190.13;5069111;28;20024;-70
2023/06/05 03:02:48;;;;;;;15.57;7.60;;;;;;;-144.73;100.00;54214.78;5068080;28;20051;-72
2023/06/05 03:05:14;;;;;;;20.00;8.50;;;;;;;-144.73;100.00;54220.94;5068862;28;20031;-70
2023/06/05 03:07:40;;;;;;;20.17;8.90;;;;;;;-144.73;100.00;54206.56;5050428;28;20036;-71
2023/06/05 03:10:06;;;;;;;19.73;9.80;;;;;;;-144.73;100.00;54218.88;5050453;28;20028;-70
2023/06/05 03:12:32;;;;;;;17.05;9.80;;;;;;;-144.73;100.00;54198.34;5050350;28;20111;-71
2023/06/05 03:14:57;;;;;;;25.17;9.82;;;;;;;-144.73;100.00;54196.28;5048788;28;20112;-70
2023/06/05 03:17:24;;;;;;;16.52;8.57;;;;;;;-144.73;100.00;54227.09;5048927;28;20044;-70
2023/06/05 03:19:50;;;;;;;22.23;9.68;;;;;;;-144.73;100.00;54222.97;5068814;28;20032;-71
2023/06/05 03:22:19;;;;;;;21.52;9.45;;;;;;;-144.73;100.00;54210.66;5068356;28;20040;-70
2023/06/05 03:24:45;;;;;;;17.95;9.82;;;;;;;-144.73;100.00;54210.66;5068754;28;20482;-71
2023/06/05 03:27:10;;;;;;;20.15;10.13;;;;;;;-144.73;100.00;54218.88;5068111;28;20044;-70
2023/06/05 03:29:36;;;;;;;24.38;10.85;;;;;;;-144.73;100.00;54212.72;5047956;28;20446;-70
2023/06/05 03:32:01;;;;;;;21.20;10.60;;;;;;;-144.73;100.00;54239.41;5048855;28;20024;-71
2023/06/05 03:34:27;;;;;;;22.60;10.27;;;;;;;-144.73;100.00;54227.09;5050488;28;20056;-70
2023/06/05 03:36:52;;;;;;;19.05;10.70;;;;;;;-144.73;100.00;54198.34;5050029;28;20121;-70
2023/06/05 03:39:18;;;;;;;19.42;10.40;;;;;;;-144.73;100.00;54210.66;5050751;28;20070;-71
2023/06/05 03:41:43;;;;;;;24.88;11.52;;;;;;;-144.73;100.00;54198.34;5045265;28;20466;-71
2023/06/05 03:44:08;;;;;;;22.38;11.68;;;;;;;-144.73;100.00;54210.66;5050345;28;20055;-70
2023/06/05 03:46:35;;;;;;;26.65;11.30;;;;;;;-144.73;100.00;54243.50;5046454;28;20017;-71
2023/06/05 03:49:05;;;;;;;19.17;10.70;;;;;;;-144.73;100.00;54239.41;5067091;28;20070;-71
2023/06/05 03:51:31;;;;;;;24.63;10.65;;;;;;;-144.73;100.00;54177.81;5068116;28;20032;-70
2023/06/05 03:53:58;;;;;;;24.15;10.30;;;;;;;-144.73;100.00;54229.13;5049059;28;20476;-71
2023/06/05 03:56:28;;;;;;;21.25;11.52;;;;;;;-144.73;100.00;54218.88;5049883;28;20036;-70
2023/06/05 03:58:55;;;;;;;22.63;11.90;;;;;;;-144.73;100.00;54204.50;5050910;28;20032;-71
2023/06/05 04:01:21;;;;;;;20.30;11.30;;;;;;;-144.73;100.00;54190.13;5067669;28;20095;-71
2023/06/05 04:03:46;;;;;;;32.90;11.65;;;;;;;-144.73;100.00;54186.03;5068437;28;20028;-71
2023/06/05 04:06:12;;;;;;;27.80;11.70;;;;;;;-144.73;100.00;54227.09;5050363;28;20026;-71
2023/06/05 04:08:37;;;;;;;23.52;11.13;;;;;;;-144.73;100.00;54206.56;5071146;28;20475;-71
2023/06/05 04:11:03;;;;;;;29.13;11.55;;;;;;;-144.73;100.00;54214.78;5054417;28;20077;-70
2023/06/05 04:13:28;;;;;;;24.58;10.65;;;;;;;-144.73;100.00;54247.59;5053493;28;20059;-70
2023/06/05 04:15:53;;;;;;;21.33;11.57;;;;;;;-144.73;100.00;54227.09;5056253;28;20031;-71
2023/06/05 04:18:19;;;;;;;17.35;10.32;;;;;;;-144.73;100.00;54175.78;5058072;28;20031;-71
2023/06/05 04:20:44;;;;;;;23.50;12.07;;;;;;;-144.73;100.00;54194.25;5054332;28;20119;-70
2023/06/05 04:23:09;;;;;;;18.10;10.50;;;;;;;-144.73;100.00;54222.97;5070830;28;20032;-71
2023/06/05 04:25:35;;;;;;;22.02;11.60;;;;;;;-144.73;100.00;54218.88;5071840;28;20013;-71
2023/06/05 04:28:00;;;;;;;28.02;11.60;;;;;;;-144.73;100.00;54202.44;5071195;28;20029;-70
2023/06/05 04:30:25;;;;;;;15.57;10.48;;;;;;;-144.73;100.00;54202.44;5053874;28;20039;-71
2023/06/05 04:32:54;;;;;;;21.38;10.98;;;;;;;-144.73;100.00;54235.28;5053260;28;20043;-71
2023/06/05 04:35:22;;;;;;;19.80;11.60;;;;;;;-144.73;100.00;54218.88;5071386;28;20082;-71
2023/06/05 04:37:48;;;;;;;20.02;10.95;;;;;;;-144.73;100.00;54175.78;5053278;28;20025;-70
2023/06/05 04:40:16;;;;;;;27.52;11.27;;;;;;;-144.73;100.00;54222.97;5053620;28;20106;-71
2023/06/05 04:42:41;;;;;;;22.52;10.90;;;;;;;-144.73;100.00;54147.03;5048698;28;20096;-72
2023/06/05 04:45:07;;;;;;;19.15;10.95;;;;;;;-144.73;100.00;54198.34;5053326;28;20104;-70
2023/06/05 04:47:33;;;;;;;19.65;11.85;;;;;;;-144.73;100.00;54206.56;5053313;28;20059;-71
2023/06/05 04:49:59;;;;;;;24.73;10.82;;;;;;;-144.73;100.00;54218.88;5071577;28;20059;-71
2023/06/05 04:52:26;;;;;;;21.67;11.63;;;;;;;-144.73;100.00;54247.59;5053228;28;20029;-71
2023/06/05 04:54:52;;;;;;;26.08;12.65;;;;;;;-144.73;100.00;54210.66;5052868;28;20016;-71
2023/06/05 04:57:18;;;;;;;24.92;11.80;;;;;;;-144.73;100.00;54175.78;5070401;28;20487;-71
2023/06/05 04:59:44;;;;;;;20.55;11.13;;;;;;;-144.73;100.00;54202.44;5053451;28;20028;-71
2023/06/05 05:02:09;;;;;;;19.73;11.43;;;;;;;-144.73;100.00;54218.88;5070418;28;20032;-70
2023/06/05 05:04:35;;;;;;;32.50;11.10;;;;;;;-144.73;100.00;54186.03;5053386;28;20122;-70
2023/06/05 05:07:03;;;;;;;35.15;10.95;;;;;;;-144.73;100.00;54235.28;5052591;28;20028;-69
2023/06/05 05:09:30;;;;;;;28.90;11.90;;;;;;;-144.73;100.00;54225.03;5053261;28;20040;-70
2023/06/05 05:11:59;;;;;;;21.60;10.38;;;;;;;-144.73;100.00;54235.28;5050444;28;20025;-71
2023/06/05 05:14:28;;;;;;;36.13;11.35;;;;;;;-144.73;100.00;54214.78;5070778;28;20021;-69
2023/06/05 05:16:55;;;;;;;15.95;9.35;;;;;;;-144.73;100.00;54227.09;5049730;28;20041;-70
2023/06/05 05:19:22;;;;;;;25.70;9.90;;;;;;;-144.73;100.00;54222.97;5069901;28;20073;-71
2023/06/05 05:21:48;;;;;;;20.88;10.30;;;;;;;-144.73;100.00;54202.44;5069333;28;20453;-70
2023/06/05 05:24:14;;;;;;;20.90;9.65;;;;;;;-144.73;100.00;54206.56;5052211;28;20016;-70
2023/06/05 05:26:39;;;;;;;21.98;10.55;;;;;;;-144.73;100.00;54231.19;5053068;28;20128;-70
2023/06/05 05:29:06;;;;;;;23.85;9.48;;;;;;;-144.73;100.00;54214.78;5052600;28;20046;-72
2023/06/05 05:31:31;;;;;;;26.15;10.77;;;;;;;-144.73;100.00;54179.88;5052658;28;20483;-72
2023/06/05 05:33:59;;;;;;;25.55;9.63;;;;;;;-144.73;100.00;54218.88;5057699;28;20095;-72
2023/06/05 05:36:33;;;;;;;23.75;10.05;;;;;;;-144.73;100.00;54222.97;5043448;28;20045;-70
2023/06/05 05:38:58;;;;;;;15.55;8.82;;;;;;;-144.73;100.00;54243.50;5064635;28;20017;-71
2023/06/05 05:41:24;;;;;;;24.98;12.07;;;;;;;-144.73;100.00;54210.66;5052774;28;20020;-72
2023/06/05 05:43:50;;;;;;;32.08;10.90;;;;;;;-144.73;100.00;54198.34;5059248;28;20105;-71
2023/06/05 05:46:15;;;;;;;25.17;9.25;;;;;;;-144.73;100.00;54214.78;5054464;28;20383;-72
2023/06/05 05:48:40;;;;;;;19.52;8.57;;;;;;;-144.73;100.00;54222.97;5061157;28;20127;-71
2023/06/05 05:51:07;;;;;;;17.25;8.73;;;;;;;-144.73;100.00;54212.72;5067264;28;20028;-71
2023/06/05 05:53:32;;;;;;;20.60;8.43;;;;;;;-144.73;100.00;54222.97;5069542;28;20104;-71
2023/06/05 05:55:58;;;;;;;25.38;10.13;;;;;;;-144.73;100.00;54206.56;5054035;28;20107;-71
2023/06/05 05:58:23;;;;;;;27.40;10.38;;;;;;;-144.73;100.00;54183.97;5066838;28;20025;-70
2023/06/05 06:00:49;;;;;;;21.25;9.40;;;;;;;-144.73;100.00;54239.41;5068278;28;20024;-71
2023/06/05 06:03:16;;;;;;;22.25;8.55;;;;;;;-144.73;100.00;54239.41;5051951;28;20028;-71
2023/06/05 06:05:42;;;;;;;22.25;9.15;;;;;;;-144.73;100.00;54208.63;5048975;28;20020;-71
2023/06/05 06:08:07;;;;;;;17.95;9.05;;;;;;;-144.73;100.00;54235.28;5051690;28;20025;-71
2023/06/05 06:10:34;;;;;;;25.35;9.80;;;;;;;-144.73;100.00;54227.09;5051958;28;20027;-71
2023/06/05 06:12:59;;;;;;;18.77;8.20;;;;;;;-144.73;100.00;54181.94;5051822;28;20039;-71
2023/06/05 06:15:25;;;;;;;20.33;8.23;;;;;;;-144.73;100.00;54202.44;5069807;28;20432;-71
2023/06/05 06:17:50;;;;;;;30.60;14.07;;;;;;;-144.73;100.00;54218.88;5069543;28;20032;-71
2023/06/05 06:20:16;;;;;;;23.02;8.80;;;;;;;-144.73;100.00;54227.09;5048866;28;20029;-71
2023/06/05 06:22:44;;;;;;;20.58;7.80;;;;;;;-144.73;100.00;54214.78;5069106;28;20039;-71
2023/06/05 06:25:11;;;;;;;18.08;8.27;;;;;;;-144.73;100.00;54225.03;5051556;28;20012;-71
2023/06/05 06:27:38;;;;;;;15.43;7.70;;;;;;;-144.73;100.00;54255.81;5051994;28;20036;-70
2023/06/05 06:30:04;;;;;;;26.73;8.57;;;;;;;-144.73;100.00;54259.91;5051673;28;20020;-70
2023/06/05 06:32:30;;;;;;;17.33;8.23;;;;;;;-144.73;100.00;54227.09;5063407;28;20061;-69
2023/06/05 06:34:56;;;;;;;18.23;7.22;;;;;;;-144.73;100.00;54222.97;5069892;28;20059;-69
2023/06/05 06:37:22;;;;;;;15.95;7.45;;;;;;;-144.73;100.00;54198.34;5069548;28;20119;-70
2023/06/05 06:39:48;;;;;;;22.15;7.78;;;;;;;-144.73;100.00;54231.19;5049544;28;20457;-69
2023/06/05 06:42:14;;;;;;;18.70;7.30;;;;;;;-144.73;100.00;54243.50;5051401;28;20028;-69
2023/06/05 06:44:39;;;;;;;16.77;6.82;;;;;;;-144.73;100.00;54214.78;5059915;28;20028;-70
2023/06/05 06:47:05;;;;;;;19.88;7.68;;;;;;;-144.73;100.00;54251.72;5051708;28;20189;-69
2023/06/05 06:49:31;;;;;;;12.60;6.75;;;;;;;-144.73;100.00;54181.94;5051805;28;20055;-69
2023/06/05 06:51:56;;;;;;;10.07;6.07;;;;;;;-144.73;100.00;54247.59;5051129;28;20027;-70
2023/06/05 06:54:22;;;;;;;18.25;7.32;;;;;;;-144.73;100.00;54177.81;5051564;28;20066;-70
2023/06/05 06:56:49;;;;;;;12.45;6.50;;;;;;;-144.73;100.00;54202.44;5048010;28;20036;-70
2023/06/05 06:59:15;;;;;;;16.83;6.93;;;;;;;-144.73;100.00;54227.09;5069424;28;20021;-70
2023/06/05 07:01:47;;;;;;;14.10;6.43;;;;;;;-144.73;100.00;54255.81;5051566;28;20032;-70
2023/06/05 07:04:19;;;;;;;15.55;6.18;;;;;;;-144.73;100.00;54239.41;5052019;28;20025;-70
2023/06/05 07:06:45;;;;;;;18.88;5.63;;;;;;;-144.73;100.00;54202.44;5047050;28;20032;-70
2023/06/05 07:09:11;;;;;;;14.75;6.35;;;;;;;-144.73;100.00;54239.41;5051352;28;20025;-72
2023/06/05 07:11:36;;;;;;;12.10;5.38;;;;;;;-144.73;100.00;54206.56;5068802;28;20073;-71
2023/06/05 07:14:01;;;;;;;25.75;6.10;;;;;;;-144.73;99.53;54227.09;5069303;28;20013;-70
2023/06/05 07:16:27;;;;;;;20.05;9.00;;;;;;;-144.73;97.46;54235.28;5068804;28;20083;-70
2023/06/05 07:18:53;;;;;;;15.52;4.72;;;;;;;-144.73;95.17;54235.28;5069433;28;20013;-70
2023/06/05 07:21:18;;;;;;;14.80;6.75;;;;;;;-144.73;94.12;54214.78;5051743;28;20031;-70
2023/06/05 07:23:51;;;;;;;11.25;4.32;;;;;;;-144.73;91.85;54218.88;5065767;28;20028;-70
2023/06/05 07:26:17;;;;;;;13.10;5.53;;;;;;;-144.73;91.69;54153.19;5049249;28;20028;-70
2023/06/05 07:28:43;;;;;;;16.60;5.30;;;;;;;-144.73;89.61;54157.31;5065995;28;20051;-70
2023/06/05 07:31:08;;;;;;;20.00;7.38;;;;;;;-144.73;87.91;54177.81;5051052;28;20021;-70
2023/06/05 07:33:33;;;;;;;15.15;6.90;;;;;;;-144.73;84.78;54128.56;5050794;28;20035;-71
2023/06/05 07:36:00;;;;;;;12.18;5.35;;;;;;;-144.73;85.17;54177.81;5068517;28;20050;-70
2023/06/05 07:38:26;;;;;;;19.58;7.15;;;;;;;-144.73;82.12;54194.25;5068502;28;20037;-71
2023/06/05 07:40:52;;;;;;;15.85;5.03;;;;;;;-144.73;81.16;54186.03;5068802;28;20063;-71
2023/06/05 07:43:17;;;;;;;13.15;4.20;;;;;;;-144.73;82.22;54204.50;5071000;28;20064;-70
2023/06/05 07:45:43;;;;;;;12.98;4.15;;;;;;;-144.73;79.96;54177.81;5055397;28;20490;-70
2023/06/05 07:48:08;;;;;;;10.85;4.20;;;;;;;-144.73;79.03;54157.31;5072425;28;20059;-71
2023/06/05 07:50:33;;;;;;;11.63;4.07;;;;;;;-144.73;76.70;54132.69;5058293;28;20089;-71
2023/06/05 07:52:59;;;;;;;13.68;3.70;;;;;;;-144.73;75.60;54198.34;5072130;28;20032;-70
2023/06/05 07:55:24;;;;;;;9.05;4.03;;;;;;;-144.73;74.42;54183.97;5056606;28;20028;-71
2023/06/05 07:57:53;;;;;;;9.68;4.03;;;;;;;-144.73;74.73;54190.13;5054112;28;20059;-72
2023/06/05 08:00:19;;;;;;;16.13;4.30;;;;;;;-144.73;71.74;54177.81;5073081;28;20530;-70
2023/06/05 08:02:45;;;;;;;12.30;4.22;;;;;;;-144.73;71.59;54190.13;5072420;28;20128;-72
2023/06/05 08:05:10;;;;;;;10.60;3.90;;;;;;;-144.73;71.04;54161.41;5067842;28;20062;-71
2023/06/05 08:07:35;;;;;;;17.88;4.15;;;;;;;-144.73;71.57;54177.81;5072399;28;20037;-71
2023/06/05 08:10:01;;;;;;;13.77;4.07;;;;;;;-144.73;70.06;54186.03;5053761;28;20025;-71
2023/06/05 08:12:26;;;;;;;16.42;3.90;;;;;;;-144.73;70.50;54153.19;5054326;28;20062;-71
2023/06/05 08:14:51;;;;;;;14.38;4.20;;;;;;;-144.73;69.25;54181.94;5054880;28;20060;-72
2023/06/05 08:17:17;;;;;;;12.98;3.70;;;;;;;-144.73;67.25;54157.31;5072202;28;20542;-71
2023/06/05 08:19:43;;;;;;;14.65;3.72;;;;;;;-144.73;65.13;54153.19;5054954;28;20020;-72
2023/06/05 08:22:08;;;;;;;18.98;3.97;;;;;;;-144.73;65.04;54149.09;5053763;28;20051;-72
2023/06/05 08:24:34;;;;;;;13.98;4.10;;;;;;;-144.73;65.56;54198.34;5054362;28;20033;-71
2023/06/05 08:27:00;;;;;;;9.38;3.58;;;;;;;-144.73;66.92;54112.16;5053386;28;20056;-71
2023/06/05 08:29:27;;;;;;;12.38;3.92;;;;;;;-144.73;64.78;54103.94;5057800;28;20078;-71
2023/06/05 08:31:53;;;;;;;10.82;3.83;;;;;;;-144.73;64.62;54145.00;5053871;28;20070;-72
2023/06/05 08:34:18;;;;;;;12.88;3.63;;;;;;;-144.73;65.16;54145.00;5054270;28;20017;-71
2023/06/05 08:36:44;;;;;;;8.48;3.22;;;;;;;-144.73;63.26;54177.81;5061438;28;20037;-71
2023/06/05 08:39:10;;;;;;;12.15;3.90;;;;;;;-144.73;62.27;54132.69;5052072;28;20048;-71
2023/06/05 08:41:36;;;;;;;10.52;4.05;;;;;;;-144.73;61.22;54190.13;5054196;28;20028;-71
2023/06/05 08:44:05;;;;;;;9.60;3.67;;;;;;;-144.73;61.38;54145.00;5071620;28;20076;-72
2023/06/05 08:46:30;;;;;;;19.27;3.92;;;;;;;-144.73;61.30;54145.00;5054460;28;20024;-72
2023/06/05 08:48:57;;;;;;;8.82;3.15;;;;;;;-144.73;59.64;54145.00;5054481;28;20429;-71
2023/06/05 08:51:22;;;;;;;11.30;3.65;;;;;;;-144.73;58.51;54173.72;5052002;28;20029;-71
2023/06/05 08:53:56;;;;;;;11.60;3.30;;;;;;;-144.73;58.19;54173.72;5053542;28;20012;-71
2023/06/05 08:56:22;;;;;;;12.93;3.72;;;;;;;-144.73;54.83;54188.09;5055020;28;20479;-71
2023/06/05 08:58:49;;;;;;;11.35;3.25;;;;;;;-144.73;53.99;54165.50;5054182;28;20035;-72
2023/06/05 09:01:14;;;;;;;12.38;3.40;;;;;;;-144.73;55.48;54112.16;5051298;28;20028;-73
2023/06/05 09:03:39;;;;;;;10.27;3.35;;;;;;;-144.73;53.45;54120.34;5053922;28;20104;-72
2023/06/05 09:06:05;;;;;;;15.32;3.47;;;;;;;-144.73;54.02;54161.41;5071934;28;20041;-72
2023/06/05 09:08:32;;;;;;;7.07;3.88;;;;;;;-144.73;52.99;54108.03;5071086;28;20189;-72
2023/06/05 09:11:19;;;;;;;12.43;3.63;;;;;;;-144.73;52.33;54157.31;5072430;28;20029;-72
2023/06/05 09:13:46;;;;;;;16.40;3.75;;;;;;;-144.73;52.08;54157.31;5064021;28;20032;-73
2023/06/05 09:16:11;;;;;;;4.63;2.63;;;;;;;-144.73;50.92;54132.69;5062026;28;20392;-72
2023/06/05 09:18:52;;;;;;;8.75;3.30;;;;;;;-144.73;50.60;54181.94;5056343;28;20100;-72
2023/06/05 09:21:17;;;;;;;8.47;3.60;;;;;;;-144.73;49.86;54157.31;5046386;28;20043;-73
2023/06/05 09:23:44;;;;;;;9.57;3.05;;;;;;;-144.73;49.50;54136.78;5053754;28;20040;-73
2023/06/05 09:26:12;;;;;;;8.90;3.22;;;;;;;-144.73;49.22;54108.03;5053717;28;20175;-74
2023/06/05 09:28:53;;;;;;;7.50;2.75;;;;;;;-144.73;48.48;54153.19;5066100;28;20518;-72
2023/06/05 09:31:19;;;;;;;11.75;3.50;;;;;;;-144.73;47.42;54145.00;5050453;28;20021;-72
2023/06/05 09:33:55;;;;;;;8.50;2.95;;;;;;;-144.73;47.66;54161.41;5051046;28;20484;-73
2023/06/05 09:36:21;;;;;;;10.35;2.75;;;;;;;-144.73;44.83;54116.25;5069225;28;20025;-72
2023/06/05 09:38:46;;;;;;;9.35;2.97;;;;;;;-144.73;45.37;54145.00;5071034;28;20054;-72
2023/06/05 09:41:20;;;;;;;7.57;2.92;;;;;;;-144.73;46.90;54161.41;5057188;28;20031;-71
2023/06/05 09:43:45;;;;;;;8.55;2.63;;;;;;;-144.73;45.40;54120.34;5071423;28;20475;-71
2023/06/05 09:46:13;;;;;;;11.07;2.80;;;;;;;-144.73;47.48;54108.03;5053772;28;20047;-71
2023/06/05 09:48:49;;;;;;;12.27;2.85;;;;;;;-144.73;45.48;54079.31;5053157;28;20103;-71
2023/06/05 09:51:17;;;;;;;6.82;2.78;;;;;;;-144.73;44.27;54118.31;5071635;28;20025;-71
2023/06/05 09:53:45;;;;;;;14.77;3.03;;;;;;;-144.73;43.32;54095.72;5071167;28;20029;-73
2023/06/05 09:56:15;;;;;;;10.50;2.63;;;;;;;-144.73;42.77;54132.69;5071407;28;20029;-71
2023/06/05 09:58:49;;;;;;;13.77;3.53;;;;;;;-144.73;43.59;54116.25;5037795;28;20029;-71
2023/06/05 10:01:24;;;;;;;9.25;2.53;;;;;;;-144.73;45.23;54145.00;5050210;28;20024;-72
2023/06/05 10:04:06;;;;;;;9.02;3.08;;;;;;;-144.73;44.04;54130.63;5049283;28;20137;-71
2023/06/05 10:06:32;;;;;;;15.98;3.30;;;;;;;-144.73;44.74;54089.56;5046663;28;20074;-72
2023/06/05 10:09:00;;;;;;;6.22;2.50;;;;;;;-144.73;44.85;54071.09;5050399;28;20033;-72
2023/06/05 10:11:26;;;;;;;13.60;2.92;;;;;;;-144.73;43.13;54120.34;5049519;28;20112;-71
2023/06/05 10:13:53;;;;;;;10.45;2.80;;;;;;;-144.73;42.81;54108.03;5053371;28;20031;-71
2023/06/05 10:16:19;;;;;;;11.90;3.65;;;;;;;-144.73;42.30;54136.78;5071074;28;20036;-73
2023/06/05 10:18:49;;;;;;;9.77;3.15;;;;;;;-144.73;43.03;54095.72;5052719;28;20041;-72
2023/06/05 10:21:18;;;;;;;10.65;3.17;;;;;;;-144.73;43.25;54120.34;5052818;28;20077;-72
2023/06/05 10:24:02;;;;;;;7.72;3.38;;;;;;;-144.73;42.88;54103.94;5052438;28;20043;-72
2023/06/05 10:26:56;;;;;;;7.18;2.50;;;;;;;-144.73;43.43;54136.78;5070337;28;20044;-72
2023/06/05 10:29:43;;;;;;;9.48;3.03;;;;;;;-144.73;43.03;54116.25;5071015;28;20020;-72
2023/06/05 10:32:28;;;;;;;10.05;2.90;;;;;;;-144.73;42.31;54091.63;5052188;28;20036;-71
2023/06/05 10:35:01;;;;;;;6.70;2.40;;;;;;;-144.73;41.44;54108.03;5070770;28;20485;-72
2023/06/05 10:37:36;;;;;;;10.38;2.58;;;;;;;-144.73;41.15;54095.72;5052466;28;20032;-71
2023/06/05 10:40:04;;;;;;;6.22;2.67;;;;;;;-144.73;40.46;54145.00;5070401;28;20056;-71
2023/06/05 10:42:30;;;;;;;6.10;2.60;;;;;;;-144.73;40.04;54071.09;5069982;28;20059;-71
2023/06/05 10:44:55;;;;;;;11.18;2.80;;;;;;;-144.73;39.75;54091.63;5071584;28;20090;-71
2023/06/05 10:47:33;;;;;;;7.72;2.17;;;;;;;-144.73;39.45;54114.19;5070243;28;20628;-72
2023/06/05 10:50:17;;;;;;;5.18;2.40;;;;;;;-144.73;38.32;54099.84;5053353;28;20027;-71
2023/06/05 10:52:43;;;;;;;7.38;2.47;;;;;;;-144.73;37.13;54101.88;5052510;28;20078;-73
2023/06/05 10:55:12;;;;;;;8.25;2.78;;;;;;;-144.73;37.30;54116.25;5052937;28;20030;-71
2023/06/05 10:57:56;;;;;;;8.43;2.28;;;;;;;-144.73;35.97;54120.34;5051714;28;20537;-71
2023/06/05 11:00:22;;;;;;;10.27;2.47;;;;;;;-144.73;36.80;54087.53;5071379;28;20387;-73
2023/06/05 11:02:48;;;;;;;6.20;2.50;;;;;;;-144.73;35.19;54089.56;5052217;28;20029;-72
2023/06/05 11:05:14;;;;;;;6.28;2.35;;;;;;;-144.73;34.92;54108.03;5070636;28;20090;-73